Flight Track Log - Related Links

Times and Time Zones

All times are in EDT time to prevent confusion due to time zone crossing. See the N412AB flight status page for this flight to view local times or setup timezone preferences in your user account.

Time Position Orientation Groundspeed Altitude Reporting Facility
EDT Latitude Longitude Course Direction KTS MPH feet Rate Location/Type
Tue 06:00:40 PM 41.4847 -72.0161 North 270 311 8,800  Level Boston Center
Tue 06:01:40 PM 41.5492 -72.0019 North 265 305 10,000 1,850 Climbing Boston Center
Tue 06:02:40 PM 41.6347 -71.9844 North 275 316 12,500 1,900 Climbing Boston Center
Tue 06:03:40 PM 41.6953 -72.0536 320° Northwest 282 325 13,800 1,955 Climbing Boston Center
Tue 06:04:52 PM 41.7728 -72.1700 312° West 315 362 16,800 2,227 Climbing Boston Center
Tue 06:05:52 PM 41.8208 -72.2450 311° West 330 380 18,700 2,500 Climbing Boston Center
Tue 06:06:52 PM 41.8939 -72.3508 313° West 343 395 21,800 2,900 Climbing Boston Center
Tue 06:07:52 PM 41.9606 -72.4542 311° West 354 407 24,500 2,400 Climbing Boston Center
Tue 06:08:52 PM 42.0272 -72.5547 312° West 359 413 26,600 1,950 Climbing Boston Center
Tue 06:09:52 PM 42.0981 -72.6611 312° West 364 419 28,400 1,750 Climbing Boston Center
Tue 06:10:52 PM 42.1728 -72.7733 312° West 385 443 30,100 1,700 Climbing Boston Center
Tue 06:11:52 PM 42.2494 -72.8917 311° West 406 467 31,800 1,650 Climbing Boston Center
Tue 06:12:52 PM 42.3511 -72.9794 327° Northwest 450 518 33,400 1,650 Climbing Boston Center
Tue 06:13:52 PM 42.4675 -73.0425 338° Northwest 450 518 35,100 1,750 Climbing Boston Center
Tue 06:14:52 PM 42.5861 -73.1056 339° North 450 518 36,900 1,900 Climbing Boston Center
Tue 06:15:52 PM 42.7147 -73.1889 335° Northwest 455 524 38,900 1,550 Climbing Boston Center
Tue 06:16:52 PM 42.8311 -73.2525 338° Northwest 455 524 40,000 550 Climbing Boston Center
Tue 06:17:52 PM 42.9347 -73.3250 333° Northwest 442 509 40,000  Level Boston Center
Tue 06:19:03 PM 42.9922 -73.4308 307° West 417 480 40,000  Level Boston Center
Tue 06:20:04 PM 43.0114 -73.5986 279° West 361 415 40,000  Level Boston Center
Tue 06:21:04 PM 43.0203 -73.7408 275° West 361 415 40,000  Level Boston Center
Tue 06:22:03 PM 43.0294 -73.8572 276° West 373 429 40,000  Level Boston Center
Tue 06:23:04 PM 43.0394 -74.0308 275° West 383 441 40,000  Level Boston Center
Tue 06:24:04 PM 43.0478 -74.1731 275° West 388 447 40,000  Level Boston Center
Tue 06:25:04 PM 43.0581 -74.3214 275° West 388 447 40,000  Level Boston Center
Tue 06:26:04 PM 43.0681 -74.4636 276° West 388 447 40,000  Level Boston Center
Tue 06:27:04 PM 43.0758 -74.6061 274° West 383 441 40,000  Level Boston Center
Tue 06:28:04 PM 43.0856 -74.7486 275° West 383 441 40,000  Level Boston Center
Tue 06:29:04 PM 43.0931 -74.8939 274° West 383 441 40,000  Level Boston Center
Tue 06:30:04 PM 43.1003 -75.0392 274° West 388 447 40,000  Level Boston Center
Tue 06:31:04 PM 43.1072 -75.1903 274° West 388 447 40,000  Level Boston Center
Tue 06:32:04 PM 43.1178 -75.3500 275° West 388 447 40,000  Level Boston Center
Tue 06:33:04 PM 43.1267 -75.4900 275° West 388 447 40,000  Level Boston Center
Tue 06:34:04 PM 43.1333 -75.6269 274° West 382 440 40,000  Level Boston Center
Tue 06:35:04 PM 43.1378 -75.7608 273° West 364 419 40,000  Level Boston Center
Tue 06:36:15 PM 43.1461 -75.8981 275° West 364 419 40,000  Level Boston Center
Tue 06:38:26 PM 43.1583 -76.2425 273° West 372 428 40,000  Level Cleveland Center
Tue 06:39:26 PM 43.1447 -76.3858 263° West 377 434 40,000  Level Cleveland Center
Tue 06:40:26 PM 43.1331 -76.5261 264° West 377 434 40,000  Level Cleveland Center
Tue 06:41:26 PM 43.1211 -76.6633 263° West 377 434 40,000  Level Cleveland Center
Tue 06:42:26 PM 43.1089 -76.7922 263° West 377 434 40,000  Level Cleveland Center
Tue 06:43:26 PM 43.0967 -76.9322 263° West 377 434 40,000  Level Cleveland Center
Tue 06:44:26 PM 43.0864 -77.0694 264° West 372 428 40,000  Level Cleveland Center
Tue 06:45:26 PM 43.0697 -77.2125 261° West 372 428 40,000  Level Cleveland Center
Tue 06:46:26 PM 43.0572 -77.3581 263° West 378 435 40,000  Level Cleveland Center
Tue 06:47:26 PM 43.0422 -77.5008 262° West 383 441 40,000  Level Cleveland Center
Tue 06:48:26 PM 43.0314 -77.6436 264° West 388 447 40,000  Level Cleveland Center
Tue 06:49:26 PM 43.0161 -77.7861 262° West 388 447 40,000  Level Cleveland Center
Tue 06:50:26 PM 43.0031 -77.9317 263° West 393 452 40,000  Level Cleveland Center
Tue 06:51:28 PM 42.9875 -78.0742 262° West 388 447 40,000  Level Cleveland Center
Tue 06:52:38 PM 42.9706 -78.2594 263° West 388 447 40,000 -46 Level Cleveland Center
Tue 06:53:38 PM 42.9564 -78.3989 262° West 388 447 39,900 -800 Descending Cleveland Center
Tue 06:54:38 PM 42.9422 -78.5328 262° West 377 434 38,400 -1,350 Descending Cleveland Center
Tue 06:55:38 PM 42.9319 -78.6578 264° West 359 413 37,200 -1,200 Descending Cleveland Center
Tue 06:56:38 PM 42.9381 -78.7767 274° West 339 390 36,000 -1,200 Descending Cleveland Center
Tue 06:57:38 PM 42.9439 -78.9014 274° West 326 375 34,800 -1,034 Descending Cleveland Center
Tue 06:58:34 PM 42.9333 -79.0000 262° West 330 380 34,000 -414 Descending Toronto Center
Tue 06:59:34 PM 42.9500 -79.1167 281° West 330 380 34,000  Level Toronto Center
Tue 07:00:34 PM 42.9500 -79.2500 270° West 340 391 34,000  Level Toronto Center
Tue 07:01:34 PM 42.9667 -79.3833 280° West 340 391 34,000  Level Toronto Center
Tue 07:02:34 PM 42.9667 -79.5000 270° West 330 380 34,000 -250 Level Toronto Center
Tue 07:03:34 PM 42.9667 -79.6333 270° West 330 380 33,500 -800 Descending Toronto Center
Tue 07:04:34 PM 42.9833 -79.7500 281° West 330 380 32,400 -1,250 Descending Toronto Center
Tue 07:05:34 PM 42.9833 -79.8833 270° West 350 403 31,000 -1,400 Descending Toronto Center
Tue 07:06:34 PM 42.9833 -80.0167 270° West 360 414 29,600 -1,450 Descending Toronto Center
Tue 07:07:34 PM 42.9667 -80.1500 260° West 370 426 28,100 -1,500 Descending Toronto Center
Tue 07:08:34 PM 42.9500 -80.3167 262° West 380 437 26,600 -1,500 Descending Toronto Center
Tue 07:09:34 PM 42.9500 -80.4500 270° West 380 437 25,100 -1,300 Descending Toronto Center
Tue 07:10:34 PM 42.9333 -80.5833 260° West 370 426 24,000 -550 Descending Toronto Center
Tue 07:11:34 PM 42.9333 -80.7333 270° West 360 414 24,000  Level Toronto Center
Tue 07:12:34 PM 42.9000 -80.8833 253° West 370 426 24,000 -100 Level Toronto Center
Tue 07:13:34 PM 42.9000 -81.0167 270° West 370 426 23,800 -1,000 Descending Toronto Center
Tue 07:14:34 PM 42.8833 -81.1333 259° West 360 414 22,000 -1,850 Descending Toronto Center
Tue 07:15:34 PM 42.8667 -81.2667 260° West 360 414 20,100 -1,850 Descending Toronto Center
Tue 07:16:34 PM 42.8667 -81.4000 270° West 350 403 18,300 -1,658 Descending Toronto Center
Tue 07:16:50 PM 42.8739 -81.4500 281° West 353 406 18,000 -1,658 Descending Cleveland Center
Tue 07:17:50 PM 42.8622 -81.5775 263° West 342 394 16,200 -1,800 Descending Cleveland Center
Tue 07:18:50 PM 42.8528 -81.6933 264° West 332 382 14,400 -1,600 Descending Cleveland Center
Tue 07:19:50 PM 42.8433 -81.8092 264° West 315 362 13,000 -1,200 Descending Cleveland Center
Tue 07:20:50 PM 42.8339 -81.9253 264° West 315 362 12,000 -600 Descending Cleveland Center
Tue 07:21:50 PM 42.8178 -82.0381 259° West 315 362 11,800 -900 Descending Cleveland Center
Tue 07:22:50 PM 42.7894 -82.1364 249° West 303 349 10,200 -1,600 Descending Cleveland Center
Tue 07:23:50 PM 42.7714 -82.2294 255° West 283 326 8,600 -1,600 Descending Cleveland Center
Tue 07:24:50 PM 42.7700 -82.3225 269° West 264 304 7,000 -1,300 Descending Cleveland Center
Tue 07:25:50 PM 42.7625 -82.4100 263° West 252 290 6,000 -500 Descending Cleveland Center
Tue 07:26:50 PM 42.7589 -82.5006 267° West 247 284 6,000 48 Level Cleveland Center
Tue 07:27:54 PM 42.7553 -82.5992 267° West 213 245 6,100 68 Climbing Cleveland Center
Tue 07:28:18 PM 42.7567 -82.6306 273° West 215 247 6,100  Level Cleveland Center
Tue 07:29:13 PM 42.7450 -82.7036 258° West 213 245 6,100  Level Cleveland Center

Login

Don't have an account? Register now (free) for customized features, flight alerts, and more!